createdAt,value
2022-10-20T00:00:41.126Z,10.00
2022-10-20T00:01:41.137Z,15.00
2022-10-20T00:02:41.167Z,9.70
2022-10-20T00:03:41.102Z,11.20
2022-10-20T00:04:41.139Z,13.20
2022-10-20T00:05:41.076Z,11.20
2022-10-20T00:06:41.106Z,10.50
2022-10-20T00:07:41.182Z,11.30
2022-10-20T00:08:41.109Z,9.50
2022-10-20T00:09:41.113Z,9.40
2022-10-20T00:10:41.055Z,11.50
2022-10-20T00:11:41.092Z,11.70
2022-10-20T00:12:41.003Z,10.00
2022-10-20T00:13:40.990Z,9.20
2022-10-20T00:14:40.978Z,11.80
2022-10-20T00:15:41.064Z,12.40
2022-10-20T00:16:40.956Z,12.10
2022-10-20T00:17:40.977Z,11.50
2022-10-20T00:18:41.020Z,11.30
2022-10-20T00:19:40.944Z,12.30
2022-10-20T00:20:40.921Z,10.40
2022-10-20T00:21:40.985Z,13.40
2022-10-20T00:22:40.902Z,8.60
2022-10-20T00:23:40.897Z,10.30
2022-10-20T00:24:40.938Z,12.50
2022-10-20T00:25:40.866Z,10.90
2022-10-20T00:26:40.921Z,11.20
2022-10-20T00:27:40.863Z,9.80
2022-10-20T00:28:40.855Z,12.00
2022-10-20T00:29:40.839Z,10.00
2022-10-20T00:30:40.841Z,10.90
2022-10-20T00:31:40.890Z,10.40
2022-10-20T00:32:40.792Z,12.00
2022-10-20T00:33:40.802Z,11.30
2022-10-20T00:34:40.771Z,10.60
2022-10-20T00:35:40.798Z,13.10
2022-10-20T00:36:40.762Z,12.50
2022-10-20T00:37:40.832Z,11.30
2022-10-20T00:38:40.729Z,12.90
2022-10-20T00:39:40.786Z,10.70
2022-10-20T00:40:40.722Z,7.60
2022-10-20T00:41:40.718Z,12.50
2022-10-20T00:42:40.745Z,13.90
2022-10-20T00:43:40.689Z,12.20
2022-10-20T00:44:40.679Z,10.60
2022-10-20T00:45:40.662Z,12.00
2022-10-20T00:46:40.706Z,12.30
2022-10-20T00:47:40.708Z,12.80
2022-10-20T00:48:40.674Z,13.90
2022-10-20T00:49:40.687Z,11.20
2022-10-20T00:50:40.630Z,12.00
2022-10-20T00:51:40.599Z,10.60
2022-10-20T00:52:40.593Z,10.90
2022-10-20T00:53:40.581Z,9.40
2022-10-20T00:54:40.660Z,13.90
2022-10-20T00:55:40.563Z,11.10
2022-10-20T00:56:40.549Z,14.20
2022-10-20T00:57:40.589Z,12.00
2022-10-20T00:58:40.532Z,13.30
2022-10-20T00:59:40.599Z,11.20
2022-10-20T01:00:40.543Z,13.40
2022-10-20T01:01:40.556Z,11.80
2022-10-20T01:02:40.541Z,13.10
2022-10-20T01:03:40.490Z,12.10
2022-10-20T01:04:40.476Z,11.80
2022-10-20T01:05:40.536Z,10.80
2022-10-20T01:06:40.445Z,12.90
2022-10-20T01:07:40.496Z,9.60
2022-10-20T01:08:40.458Z,12.80
2022-10-20T01:09:40.464Z,12.60
2022-10-20T01:10:40.413Z,11.10
2022-10-20T01:11:40.429Z,12.70
2022-10-20T01:12:40.406Z,10.30
2022-10-20T01:13:40.434Z,13.90
2022-10-20T01:14:40.389Z,11.60
2022-10-20T01:15:40.386Z,12.80
2022-10-20T01:16:40.362Z,15.50
2022-10-20T01:17:40.342Z,12.60
2022-10-20T01:18:40.381Z,12.30
2022-10-20T01:19:40.347Z,14.30
2022-10-20T01:20:40.322Z,12.00
2022-10-20T01:21:40.295Z,9.80
2022-10-20T01:22:40.327Z,12.90
2022-10-20T01:23:40.289Z,11.80
2022-10-20T01:24:40.311Z,14.00
2022-10-20T01:25:40.255Z,10.80
2022-10-20T01:26:40.273Z,12.20
2022-10-20T01:27:40.416Z,11.50
2022-10-20T01:28:40.239Z,12.10
2022-10-20T01:29:40.263Z,14.60
2022-10-20T01:30:40.271Z,13.40
2022-10-20T01:31:40.261Z,13.60
2022-10-20T01:32:40.215Z,13.40
2022-10-20T01:33:40.198Z,12.30
2022-10-20T01:34:40.175Z,13.60
2022-10-20T01:35:40.219Z,11.80
2022-10-20T01:36:40.186Z,13.40
2022-10-20T01:37:49.008Z,14.20
2022-10-20T01:38:40.132Z,12.40
2022-10-20T01:39:40.133Z,12.00
2022-10-20T01:40:40.104Z,12.20
2022-10-20T01:41:40.175Z,10.90
2022-10-20T01:42:40.302Z,12.40
2022-10-20T01:43:40.088Z,13.60
2022-10-20T01:44:40.094Z,16.60
2022-10-20T01:45:40.064Z,12.80
2022-10-20T01:46:40.075Z,11.80
2022-10-20T01:47:40.100Z,12.90
2022-10-20T01:48:40.087Z,18.00
2022-10-20T01:49:40.021Z,15.20
2022-10-20T01:50:40.059Z,15.70
2022-10-20T01:52:39.996Z,14.00
2022-10-20T01:53:40.026Z,13.30
2022-10-20T01:54:39.962Z,13.10
2022-10-20T01:55:39.959Z,10.40
2022-10-20T01:56:39.995Z,10.80
2022-10-20T01:57:39.981Z,10.20
2022-10-20T01:58:39.934Z,16.50
2022-10-20T01:59:39.974Z,14.10
2022-10-20T02:00:39.919Z,14.50
2022-10-20T02:01:39.960Z,12.90
2022-10-20T02:02:39.970Z,12.90
2022-10-20T02:03:39.962Z,14.30
2022-10-20T02:04:39.866Z,12.10
2022-10-20T02:05:39.875Z,11.40
2022-10-20T02:06:39.854Z,11.50
2022-10-20T02:07:39.829Z,17.20
2022-10-20T02:08:39.931Z,15.00
2022-10-20T02:09:39.858Z,23.10
2022-10-20T02:10:39.899Z,16.10
2022-10-20T02:11:39.804Z,15.10
2022-10-20T02:12:39.911Z,18.50
2022-10-20T02:13:39.766Z,17.20
2022-10-20T02:14:39.829Z,18.10
2022-10-20T02:15:39.773Z,15.20
2022-10-20T02:16:39.791Z,16.70
2022-10-20T02:17:39.760Z,18.10
2022-10-20T02:18:39.770Z,15.20
2022-10-20T02:19:39.715Z,18.40
2022-10-20T02:20:39.714Z,22.90
2022-10-20T02:21:39.777Z,21.20
2022-10-20T02:22:39.699Z,21.90
2022-10-20T02:23:39.668Z,16.90
2022-10-20T02:24:39.733Z,20.00
2022-10-20T02:25:39.645Z,19.80
2022-10-20T02:26:39.727Z,16.10
2022-10-20T02:27:39.651Z,18.40
2022-10-20T02:28:39.666Z,19.10
2022-10-20T02:29:39.625Z,20.20
2022-10-20T02:30:39.619Z,24.50
2022-10-20T02:31:39.594Z,16.90
2022-10-20T02:32:39.802Z,17.80
2022-10-20T02:33:39.566Z,16.20
2022-10-20T02:34:42.407Z,18.00
2022-10-20T02:35:39.635Z,20.70
2022-10-20T02:36:39.551Z,19.40
2022-10-20T02:37:39.872Z,13.40
2022-10-20T02:38:39.532Z,22.60
2022-10-20T02:39:39.522Z,17.70
2022-10-20T02:40:39.502Z,17.70
2022-10-20T02:41:39.541Z,18.80
2022-10-20T02:42:39.528Z,17.90
2022-10-20T02:43:39.481Z,16.60
2022-10-20T02:44:39.464Z,14.50
2022-10-20T02:45:39.528Z,15.50
2022-10-20T02:46:39.442Z,18.60
2022-10-20T02:47:39.785Z,15.10
2022-10-20T02:48:39.505Z,17.50
2022-10-20T02:49:39.404Z,18.00
2022-10-20T02:50:39.402Z,17.90
2022-10-20T02:51:39.456Z,17.40
2022-10-20T02:52:39.449Z,21.60
2022-10-20T02:53:39.370Z,17.40
2022-10-20T02:54:39.368Z,19.10
2022-10-20T02:55:39.351Z,18.70
2022-10-20T02:56:39.367Z,21.10
2022-10-20T02:57:39.708Z,15.70
2022-10-20T02:58:39.382Z,18.10
2022-10-20T02:59:39.370Z,16.70
2022-10-20T03:00:39.308Z,17.60
2022-10-20T03:01:39.364Z,21.00
2022-10-20T03:02:39.282Z,22.30
2022-10-20T03:03:39.317Z,21.20
2022-10-20T03:04:39.260Z,18.20
2022-10-20T03:05:39.307Z,14.60
2022-10-20T03:06:39.289Z,18.70
2022-10-20T03:07:39.331Z,16.30
2022-10-20T03:08:39.284Z,12.90
2022-10-20T03:09:39.254Z,23.40
2022-10-20T03:10:39.209Z,22.40
2022-10-20T03:11:39.198Z,15.10
2022-10-20T03:12:39.182Z,19.60
2022-10-20T03:13:39.175Z,19.90
2022-10-20T03:14:39.205Z,18.00
2022-10-20T03:15:39.190Z,16.00
2022-10-20T03:16:39.141Z,16.50
2022-10-20T03:17:39.348Z,16.90
2022-10-20T03:18:39.140Z,21.00
2022-10-20T03:19:39.103Z,14.70
2022-10-20T03:20:39.097Z,18.10
2022-10-20T03:21:39.094Z,15.30
2022-10-20T03:22:39.078Z,18.30
2022-10-20T03:23:39.113Z,15.00
2022-10-20T03:24:39.066Z,18.20
2022-10-20T03:25:39.052Z,14.30
2022-10-20T03:26:39.037Z,16.20
2022-10-20T03:27:39.328Z,16.90
2022-10-20T03:28:39.063Z,14.10
2022-10-20T03:29:39.025Z,18.70
2022-10-20T03:30:39.002Z,18.40
2022-10-20T03:31:39.038Z,14.60
2022-10-20T03:32:39.348Z,17.20
2022-10-20T03:33:39.009Z,20.90
2022-10-20T03:34:39.017Z,18.70
2022-10-20T03:35:38.969Z,13.30
2022-10-20T03:36:38.940Z,17.70
2022-10-20T03:37:38.924Z,16.00
2022-10-20T03:38:39.013Z,14.30
2022-10-20T03:39:38.933Z,18.40
2022-10-20T03:40:38.953Z,19.50
2022-10-20T03:41:39.048Z,16.80
2022-10-20T03:42:39.085Z,25.00
2022-10-20T03:43:38.859Z,18.10
2022-10-20T03:44:38.862Z,18.00
2022-10-20T03:45:38.873Z,20.20
2022-10-20T03:46:38.851Z,14.90
2022-10-20T03:47:38.900Z,17.60
2022-10-20T03:48:38.826Z,18.70
2022-10-20T03:49:38.797Z,14.90
2022-10-20T03:50:38.793Z,13.80
2022-10-20T03:51:38.825Z,12.30
2022-10-20T03:52:39.119Z,15.20
2022-10-20T03:53:38.759Z,20.70
2022-10-20T03:54:38.798Z,16.50
2022-10-20T03:55:38.746Z,13.30
2022-10-20T03:56:38.792Z,15.60
2022-10-20T03:57:39.033Z,16.60
2022-10-20T03:58:38.714Z,18.00
2022-10-20T03:59:38.697Z,14.40
2022-10-20T04:00:38.737Z,15.80
2022-10-20T04:01:38.720Z,15.10
2022-10-20T04:02:39.115Z,15.30
2022-10-20T04:03:38.656Z,19.70
2022-10-20T04:04:38.686Z,18.30
2022-10-20T04:05:38.762Z,17.50
2022-10-20T04:06:38.707Z,15.30
2022-10-20T04:07:38.623Z,16.00
2022-10-20T04:08:38.655Z,16.30
2022-10-20T04:09:38.596Z,12.60
2022-10-20T04:10:38.648Z,13.00
2022-10-20T04:11:38.631Z,16.00
2022-10-20T04:12:39.107Z,15.00
2022-10-20T04:13:38.564Z,14.80
2022-10-20T04:14:38.557Z,15.80
2022-10-20T04:15:38.543Z,21.00
2022-10-20T04:16:38.612Z,16.50
2022-10-20T04:18:38.534Z,15.10
2022-10-20T04:19:38.501Z,13.30
2022-10-20T04:20:40.706Z,14.60
2022-10-20T04:21:38.487Z,14.00
2022-10-20T04:22:38.901Z,14.60
2022-10-20T04:23:38.491Z,14.70
2022-10-20T04:24:38.496Z,16.10
2022-10-20T04:25:38.493Z,12.50
2022-10-20T04:26:38.490Z,16.60
2022-10-20T04:27:38.642Z,13.80
2022-10-20T04:28:38.416Z,17.50
2022-10-20T04:29:38.449Z,17.90
2022-10-20T04:30:38.398Z,16.20
2022-10-20T04:31:38.437Z,15.60
2022-10-20T04:32:38.370Z,16.10
2022-10-20T04:33:38.366Z,19.20
2022-10-20T04:34:38.403Z,14.50
2022-10-20T04:35:38.366Z,20.00
2022-10-20T04:36:38.364Z,20.90
2022-10-20T04:37:38.687Z,21.20
2022-10-20T04:38:38.384Z,19.70
2022-10-20T04:39:38.317Z,16.40
2022-10-20T04:40:38.290Z,13.80
2022-10-20T04:41:38.350Z,22.50
2022-10-20T04:42:38.274Z,16.60
2022-10-20T04:43:38.259Z,20.10
2022-10-20T04:44:38.252Z,24.50
2022-10-20T04:45:38.301Z,19.70
2022-10-20T04:46:38.273Z,21.10
2022-10-20T04:47:38.766Z,18.60
2022-10-20T04:48:38.221Z,17.30
2022-10-20T04:49:38.192Z,16.50
2022-10-20T04:50:38.251Z,17.60
2022-10-20T04:51:38.175Z,14.90
2022-10-20T04:52:38.234Z,13.30
2022-10-20T04:53:38.173Z,25.40
2022-10-20T04:54:38.205Z,19.30
2022-10-20T04:55:38.142Z,27.20
2022-10-20T04:56:38.136Z,16.40
2022-10-20T04:57:38.386Z,19.90
2022-10-20T04:58:38.114Z,21.80
2022-10-20T04:59:38.150Z,26.00
2022-10-20T05:00:38.125Z,28.70
2022-10-20T05:01:38.137Z,17.90
2022-10-20T05:02:38.089Z,23.70
2022-10-20T05:03:38.052Z,25.00
2022-10-20T05:04:38.096Z,24.70
2022-10-20T05:05:38.041Z,24.10
2022-10-20T05:06:38.031Z,20.20
2022-10-20T05:07:38.502Z,21.90
2022-10-20T05:08:38.068Z,19.50
2022-10-20T05:09:38.038Z,30.00
2022-10-20T05:10:37.985Z,20.80
2022-10-20T05:11:37.992Z,22.10
2022-10-20T05:12:38.400Z,29.60
2022-10-20T05:13:37.953Z,16.60
2022-10-20T05:14:38.009Z,16.30
2022-10-20T05:15:37.948Z,19.20
2022-10-20T05:16:37.930Z,20.20
2022-10-20T05:17:37.976Z,18.50
2022-10-20T05:18:37.913Z,19.90
2022-10-20T05:19:37.950Z,18.50
2022-10-20T05:20:41.333Z,31.60
2022-10-20T05:21:37.946Z,31.40
2022-10-20T05:22:38.173Z,24.00
2022-10-20T05:23:37.807Z,21.60
2022-10-20T05:24:37.883Z,26.60
2022-10-20T05:25:37.788Z,20.50
2022-10-20T05:26:37.831Z,22.50
2022-10-20T05:27:37.775Z,20.90
2022-10-20T05:28:37.761Z,15.20
2022-10-20T05:29:37.753Z,15.60
2022-10-20T05:30:37.831Z,18.40
2022-10-20T05:31:37.723Z,10.90
2022-10-20T05:32:38.100Z,18.80
2022-10-20T05:33:37.693Z,23.60
2022-10-20T05:34:37.747Z,23.20
2022-10-20T05:35:37.685Z,30.10
2022-10-20T05:36:37.677Z,27.50
2022-10-20T05:37:37.664Z,32.60
2022-10-20T05:38:37.673Z,22.10
2022-10-20T05:39:37.746Z,21.40
2022-10-20T05:40:37.632Z,23.10
2022-10-20T05:41:39.035Z,19.30
2022-10-20T05:42:37.993Z,21.70
2022-10-20T05:43:37.636Z,14.00
2022-10-20T05:44:37.638Z,15.80
2022-10-20T05:45:37.588Z,22.40
2022-10-20T05:46:37.582Z,29.10
2022-10-20T05:47:37.555Z,22.70
2022-10-20T05:48:42.832Z,20.70
2022-10-20T05:49:37.593Z,21.00
2022-10-20T05:50:37.576Z,17.90
2022-10-20T05:51:37.563Z,24.90
2022-10-20T05:52:38.115Z,24.40
2022-10-20T05:53:37.504Z,21.70
2022-10-20T05:54:37.519Z,25.70
2022-10-20T05:55:37.485Z,26.10
2022-10-20T05:56:37.483Z,21.60
2022-10-20T05:57:37.479Z,30.30
2022-10-20T05:58:37.505Z,33.50
2022-10-20T05:59:37.444Z,23.20
2022-10-20T06:00:37.435Z,17.40
2022-10-20T06:01:37.457Z,19.30
2022-10-20T06:02:37.721Z,19.40
2022-10-20T06:03:37.437Z,21.20
2022-10-20T06:04:37.473Z,19.20
2022-10-20T06:05:37.539Z,15.60
2022-10-20T06:06:37.414Z,22.00
2022-10-20T06:07:37.385Z,20.20
2022-10-20T06:08:37.580Z,28.50
2022-10-20T06:09:37.440Z,24.70
2022-10-20T06:10:37.436Z,22.20
2022-10-20T06:11:39.536Z,17.40
2022-10-20T06:12:37.645Z,32.40
2022-10-20T06:13:37.305Z,18.10
2022-10-20T06:14:37.363Z,19.70
2022-10-20T06:15:37.285Z,20.30
2022-10-20T06:16:37.279Z,28.10
2022-10-20T06:17:37.266Z,20.50
2022-10-20T06:18:37.306Z,22.30
2022-10-20T06:19:37.237Z,26.00
2022-10-20T06:20:37.231Z,19.30
2022-10-20T06:21:37.315Z,18.60
2022-10-20T06:22:37.497Z,28.70
2022-10-20T06:23:37.360Z,20.30
2022-10-20T06:24:37.241Z,24.40
2022-10-20T06:25:37.181Z,16.10
2022-10-20T06:26:37.184Z,31.60
2022-10-20T06:27:37.218Z,25.50
2022-10-20T06:28:37.150Z,34.80
2022-10-20T06:29:37.143Z,22.90
2022-10-20T06:30:37.347Z,18.30
2022-10-20T06:31:37.120Z,24.90
2022-10-20T06:32:37.343Z,20.40
2022-10-20T06:33:37.170Z,21.90
2022-10-20T06:34:37.110Z,26.50
2022-10-20T06:35:37.090Z,22.80
2022-10-20T06:36:37.085Z,24.30
2022-10-20T06:37:37.131Z,25.60
2022-10-20T06:38:37.040Z,27.50
2022-10-20T06:39:37.040Z,21.50
2022-10-20T06:40:37.026Z,26.50
2022-10-20T06:41:37.055Z,19.40
2022-10-20T06:42:37.429Z,35.60
2022-10-20T06:43:36.997Z,25.70
2022-10-20T06:44:37.002Z,25.30
2022-10-20T06:45:36.981Z,36.10
2022-10-20T06:46:37.021Z,24.00
2022-10-20T06:47:37.120Z,23.90
2022-10-20T06:48:36.945Z,24.90
2022-10-20T06:49:36.985Z,26.10
2022-10-20T06:50:36.942Z,19.70
2022-10-20T06:51:36.919Z,23.10
2022-10-20T06:52:37.191Z,18.20
2022-10-20T06:53:36.893Z,22.50
2022-10-20T06:54:36.963Z,25.00
2022-10-20T06:55:36.899Z,20.30
2022-10-20T06:56:36.860Z,28.20
2022-10-20T06:57:36.895Z,19.00
2022-10-20T06:58:36.840Z,23.00
2022-10-20T06:59:36.840Z,22.70
2022-10-20T07:00:36.860Z,15.60
2022-10-20T07:01:37.005Z,25.50
2022-10-20T07:02:37.121Z,26.10
2022-10-20T07:03:36.815Z,15.90
2022-10-20T07:04:36.809Z,17.40
2022-10-20T07:05:36.793Z,22.70
2022-10-20T07:06:36.797Z,24.90
2022-10-20T07:08:36.833Z,26.10
2022-10-20T07:09:36.787Z,27.70
2022-10-20T07:10:36.795Z,17.30
2022-10-20T07:11:36.738Z,15.40
2022-10-20T07:12:37.153Z,14.40
2022-10-20T07:13:36.788Z,20.90
2022-10-20T07:14:36.984Z,24.80
2022-10-20T07:15:36.768Z,22.90
2022-10-20T07:16:36.741Z,26.60
2022-10-20T07:17:36.895Z,23.60
2022-10-20T07:18:36.705Z,31.30
2022-10-20T07:19:36.634Z,18.20
2022-10-20T07:20:36.803Z,37.10
2022-10-20T07:21:39.136Z,22.10
2022-10-20T07:22:37.178Z,22.80
2022-10-20T07:23:36.587Z,22.90
2022-10-20T07:24:36.619Z,30.20
2022-10-20T07:25:36.572Z,21.60
2022-10-20T07:26:36.599Z,24.40
2022-10-20T07:27:36.554Z,22.10
2022-10-20T07:28:36.549Z,23.70
2022-10-20T07:29:36.580Z,21.80
2022-10-20T07:30:36.528Z,26.70
2022-10-20T07:31:36.513Z,19.50
2022-10-20T07:32:36.916Z,18.80
2022-10-20T07:33:36.509Z,27.90
2022-10-20T07:34:36.519Z,22.90
2022-10-20T07:35:36.513Z,24.00
2022-10-20T07:36:36.460Z,25.60
2022-10-20T07:37:36.787Z,26.30
2022-10-20T07:38:36.441Z,22.90
2022-10-20T07:39:36.441Z,21.00
2022-10-20T07:40:36.423Z,25.00
2022-10-20T07:41:36.503Z,18.00
2022-10-20T07:42:36.627Z,21.60
2022-10-20T07:43:36.448Z,25.40
2022-10-20T07:44:36.374Z,17.90
2022-10-20T07:45:36.374Z,15.00
2022-10-20T07:46:36.400Z,26.60
2022-10-20T07:47:38.602Z,21.50
2022-10-20T07:48:36.349Z,28.00
2022-10-20T07:49:44.017Z,22.50
2022-10-20T07:50:36.332Z,22.60
2022-10-20T07:51:36.309Z,26.20
2022-10-20T07:52:36.691Z,25.20
2022-10-20T07:53:36.341Z,18.10
2022-10-20T07:54:36.295Z,19.30
2022-10-20T07:55:38.911Z,20.80
2022-10-20T07:56:36.300Z,34.90
2022-10-20T07:57:36.318Z,24.80
2022-10-20T07:58:36.246Z,26.20
2022-10-20T07:59:36.221Z,19.20
2022-10-20T08:00:36.289Z,23.20
2022-10-20T08:01:36.279Z,37.80
2022-10-20T08:02:36.525Z,26.10
2022-10-20T08:03:36.190Z,24.00
2022-10-20T08:04:36.224Z,23.40
2022-10-20T08:05:36.210Z,26.90
2022-10-20T08:06:36.172Z,25.10
2022-10-20T08:07:36.248Z,22.00
2022-10-20T08:08:36.166Z,23.20
2022-10-20T08:09:36.195Z,27.60
2022-10-20T08:10:36.119Z,19.20
2022-10-20T08:11:36.106Z,18.90
2022-10-20T08:12:36.430Z,17.20
2022-10-20T08:13:36.083Z,26.90
2022-10-20T08:14:36.066Z,26.70
2022-10-20T08:15:36.131Z,20.20
2022-10-20T08:16:37.454Z,22.00
2022-10-20T08:17:36.146Z,18.60
2022-10-20T08:18:36.069Z,24.80
2022-10-20T08:19:37.953Z,32.40
2022-10-20T08:20:36.044Z,26.30
2022-10-20T08:21:36.014Z,17.40
2022-10-20T08:22:36.305Z,32.60
2022-10-20T08:23:35.987Z,30.20
2022-10-20T08:24:35.980Z,27.10
2022-10-20T08:25:35.966Z,23.00
2022-10-20T08:26:35.961Z,38.00
2022-10-20T08:27:36.004Z,36.10
2022-10-20T08:28:35.980Z,24.60
2022-10-20T08:29:35.925Z,25.60
2022-10-20T08:30:35.940Z,25.80
2022-10-20T08:31:35.950Z,27.10
2022-10-20T08:32:36.242Z,31.30
2022-10-20T08:33:35.885Z,24.50
2022-10-20T08:34:35.869Z,26.20
2022-10-20T08:35:35.857Z,33.80
2022-10-20T08:36:35.859Z,26.70
2022-10-20T08:37:36.193Z,23.60
2022-10-20T08:38:35.825Z,25.10
2022-10-20T08:39:35.860Z,36.90
2022-10-20T08:40:35.802Z,33.30
2022-10-20T08:41:55.449Z,21.10
2022-10-20T08:42:35.853Z,29.20
2022-10-20T08:43:35.793Z,29.20
2022-10-20T08:44:35.766Z,34.20
2022-10-20T08:45:38.379Z,33.60
2022-10-20T08:46:35.744Z,30.00
2022-10-20T08:47:36.277Z,35.60
2022-10-20T08:48:35.725Z,28.60
2022-10-20T08:49:35.721Z,28.70
2022-10-20T08:50:35.704Z,18.40
2022-10-20T08:51:35.741Z,30.50
2022-10-20T08:52:35.701Z,30.40
2022-10-20T08:53:35.672Z,22.00
2022-10-20T08:54:35.683Z,35.30
2022-10-20T08:55:35.655Z,34.60
2022-10-20T08:56:35.708Z,32.90
2022-10-20T08:57:36.495Z,41.20
2022-10-20T08:58:35.624Z,33.50
2022-10-20T08:59:39.176Z,30.20
2022-10-20T09:00:35.642Z,24.00
2022-10-20T09:01:35.718Z,27.30
2022-10-20T09:02:35.585Z,37.60
2022-10-20T09:03:35.581Z,32.30
2022-10-20T09:04:35.614Z,30.10
2022-10-20T09:05:35.617Z,30.60
2022-10-20T09:06:35.559Z,43.40
2022-10-20T09:07:35.815Z,26.00
2022-10-20T09:08:35.558Z,28.10
2022-10-20T09:09:35.508Z,30.30
2022-10-20T09:10:35.550Z,30.50
2022-10-20T09:11:35.531Z,37.00
2022-10-20T09:12:35.481Z,36.80
2022-10-20T09:13:35.598Z,21.20
2022-10-20T09:14:35.464Z,32.80
2022-10-20T09:15:35.460Z,36.00
2022-10-20T09:16:42.023Z,17.50
2022-10-20T09:17:35.736Z,31.40
2022-10-20T09:18:35.416Z,29.20
2022-10-20T09:19:35.414Z,24.70
2022-10-20T09:20:35.401Z,20.40
2022-10-20T09:21:35.384Z,26.00
2022-10-20T09:22:36.211Z,20.80
2022-10-20T09:23:41.125Z,20.60
2022-10-20T09:24:35.381Z,20.20
2022-10-20T09:25:35.417Z,28.20
2022-10-20T09:26:57.568Z,19.50
2022-10-20T09:27:35.710Z,18.70
2022-10-20T09:28:49.214Z,32.90
2022-10-20T09:29:35.316Z,35.20
2022-10-20T09:30:35.349Z,29.60
2022-10-20T09:31:35.347Z,32.90
2022-10-20T09:32:50.627Z,24.20
2022-10-20T09:33:35.319Z,25.70
2022-10-20T09:34:35.304Z,21.80
2022-10-20T09:35:35.259Z,28.50
2022-10-20T09:36:35.257Z,25.00
2022-10-20T09:37:35.337Z,21.20
2022-10-20T09:38:35.218Z,22.70
2022-10-20T09:39:35.221Z,17.40
2022-10-20T09:40:35.192Z,26.90
2022-10-20T09:41:35.190Z,26.60
2022-10-20T09:42:35.456Z,16.40
2022-10-20T09:43:35.212Z,26.80
2022-10-20T09:44:35.159Z,18.30
2022-10-20T09:45:35.175Z,19.80
2022-10-20T09:46:35.129Z,21.30
2022-10-20T09:47:35.133Z,19.10
2022-10-20T09:48:35.138Z,19.40
2022-10-20T09:49:35.168Z,23.60
2022-10-20T09:50:35.113Z,20.90
2022-10-20T09:51:35.127Z,28.50
2022-10-20T09:52:35.399Z,30.60
2022-10-20T09:53:35.114Z,20.50
2022-10-20T09:54:35.050Z,22.30
2022-10-20T09:55:35.063Z,21.50
2022-10-20T09:56:35.039Z,23.80
2022-10-20T09:57:35.046Z,23.70
2022-10-20T09:58:35.056Z,29.10
2022-10-20T09:59:35.015Z,20.70
2022-10-20T10:00:37.679Z,23.90
2022-10-20T10:01:35.010Z,25.50
2022-10-20T10:02:35.323Z,20.10
2022-10-20T10:03:34.962Z,26.90
2022-10-20T10:04:34.991Z,13.60
2022-10-20T10:05:34.958Z,22.50
2022-10-20T10:06:34.961Z,20.00
2022-10-20T10:07:34.943Z,15.00
2022-10-20T10:08:34.958Z,30.90
2022-10-20T10:09:35.002Z,17.10
2022-10-20T10:10:34.890Z,19.20
2022-10-20T10:11:34.882Z,25.10
2022-10-20T10:12:35.179Z,20.60
2022-10-20T10:13:34.902Z,24.80
2022-10-20T10:14:34.915Z,24.30
2022-10-20T10:15:34.937Z,25.00
2022-10-20T10:16:34.866Z,18.10
2022-10-20T10:17:35.121Z,19.70
2022-10-20T10:18:34.803Z,21.20
2022-10-20T10:19:34.845Z,28.60
2022-10-20T10:20:34.804Z,17.70
2022-10-20T10:21:34.831Z,18.60
2022-10-20T10:22:35.082Z,25.20
2022-10-20T10:23:34.763Z,17.50
2022-10-20T10:24:34.767Z,19.80
2022-10-20T10:25:34.779Z,22.00
2022-10-20T10:26:34.749Z,21.30
2022-10-20T10:27:34.721Z,17.90
2022-10-20T10:28:34.704Z,15.50
2022-10-20T10:29:34.698Z,19.40
2022-10-20T10:30:34.752Z,20.40
2022-10-20T10:31:34.679Z,28.00
2022-10-20T10:32:34.977Z,16.60
2022-10-20T10:33:34.655Z,18.20
2022-10-20T10:34:34.706Z,19.80
2022-10-20T10:35:34.653Z,16.90
2022-10-20T10:36:34.622Z,18.50
2022-10-20T10:37:35.270Z,19.30
2022-10-20T10:38:34.608Z,21.60
2022-10-20T10:39:34.624Z,17.90
2022-10-20T10:40:34.644Z,20.60
2022-10-20T10:41:34.578Z,17.50
2022-10-20T10:42:34.923Z,21.60
2022-10-20T10:43:35.456Z,17.20
2022-10-20T10:44:34.552Z,18.00
2022-10-20T10:45:34.580Z,18.90
2022-10-20T10:46:34.569Z,19.70
2022-10-20T10:47:37.845Z,17.80
2022-10-20T10:48:34.551Z,18.20
2022-10-20T10:49:34.649Z,16.00
2022-10-20T10:50:34.485Z,21.10
2022-10-20T10:51:34.472Z,17.60
2022-10-20T10:52:34.460Z,14.40
2022-10-20T10:53:34.457Z,20.00
2022-10-20T10:54:34.487Z,20.30
2022-10-20T10:55:48.279Z,21.60
2022-10-20T10:56:34.451Z,16.60
2022-10-20T10:57:34.668Z,18.00
2022-10-20T10:58:34.411Z,17.50
2022-10-20T10:59:34.408Z,16.70
2022-10-20T11:00:34.494Z,18.50
2022-10-20T11:01:34.378Z,20.20
2022-10-20T11:02:34.664Z,16.20
2022-10-20T11:03:37.622Z,16.30
2022-10-20T11:04:34.348Z,17.80
2022-10-20T11:05:34.350Z,18.10
2022-10-20T11:06:34.362Z,15.70
2022-10-20T11:07:34.551Z,13.40
2022-10-20T11:08:34.340Z,14.30
2022-10-20T11:09:34.333Z,15.90
2022-10-20T11:10:34.325Z,15.70
2022-10-20T11:11:34.322Z,16.60
2022-10-20T11:12:34.258Z,15.40
2022-10-20T11:13:34.250Z,15.90
2022-10-20T11:14:34.300Z,16.00
2022-10-20T11:15:34.231Z,17.80
2022-10-20T11:16:34.216Z,15.30
2022-10-20T11:17:34.483Z,15.40
2022-10-20T11:18:34.196Z,18.00
2022-10-20T11:19:34.179Z,16.90
2022-10-20T11:20:34.189Z,16.30
2022-10-20T11:21:34.162Z,15.20
2022-10-20T11:22:34.220Z,16.10
2022-10-20T11:24:34.134Z,19.60
2022-10-20T11:25:34.119Z,16.10
2022-10-20T11:26:34.136Z,15.00
2022-10-20T11:27:34.488Z,21.40
2022-10-20T11:28:34.152Z,15.80
2022-10-20T11:29:34.079Z,17.50
2022-10-20T11:30:34.078Z,16.40
2022-10-20T11:31:34.068Z,19.50
2022-10-20T11:33:35.771Z,15.70
2022-10-20T11:34:34.035Z,18.20
2022-10-20T11:35:34.018Z,19.90
2022-10-20T11:36:34.069Z,16.30
2022-10-20T11:37:34.423Z,15.60
2022-10-20T11:38:33.999Z,17.80
2022-10-20T11:39:33.982Z,15.70
2022-10-20T11:40:34.078Z,19.40
2022-10-20T11:41:34.004Z,15.20
2022-10-20T11:42:34.231Z,20.30
2022-10-20T11:43:33.949Z,15.70
2022-10-20T11:44:33.941Z,17.10
2022-10-20T11:45:33.969Z,21.50
2022-10-20T11:46:33.910Z,16.70
2022-10-20T11:47:33.945Z,16.70
2022-10-20T11:48:33.897Z,17.20
2022-10-20T11:49:33.924Z,14.40
2022-10-20T11:50:34.490Z,17.80
2022-10-20T11:51:33.861Z,21.10
2022-10-20T11:52:34.178Z,20.80
2022-10-20T11:53:33.831Z,22.40
2022-10-20T11:54:33.834Z,23.00
2022-10-20T11:55:33.885Z,17.90
2022-10-20T11:56:33.821Z,21.20
2022-10-20T11:57:33.804Z,25.30
2022-10-20T11:58:33.786Z,23.10
2022-10-20T11:59:33.774Z,24.50
2022-10-20T12:00:33.774Z,28.50
2022-10-20T12:01:33.871Z,26.50
2022-10-20T12:02:33.932Z,32.80
2022-10-20T12:03:33.734Z,31.50
2022-10-20T12:04:33.733Z,25.60
2022-10-20T12:05:33.715Z,24.60
2022-10-20T12:06:33.730Z,23.60
2022-10-20T12:07:33.769Z,25.30
2022-10-20T12:08:33.746Z,23.30
2022-10-20T12:09:33.678Z,20.30
2022-10-20T12:10:33.667Z,17.40
2022-10-20T12:11:33.664Z,19.00
2022-10-20T12:12:33.854Z,20.10
2022-10-20T12:13:33.685Z,16.20
2022-10-20T12:14:33.631Z,16.10
2022-10-20T12:15:33.611Z,16.20
2022-10-20T12:16:33.673Z,16.40
2022-10-20T12:17:33.587Z,17.90
2022-10-20T12:18:33.599Z,16.10
2022-10-20T12:19:33.630Z,15.70
2022-10-20T12:20:33.572Z,18.30
2022-10-20T12:21:34.482Z,19.90
2022-10-20T12:22:33.726Z,20.50
2022-10-20T12:23:33.544Z,21.20
2022-10-20T12:24:33.523Z,16.80
2022-10-20T12:25:33.566Z,18.00
2022-10-20T12:26:33.548Z,20.00
2022-10-20T12:27:33.489Z,15.00
2022-10-20T12:28:33.516Z,15.80
2022-10-20T12:29:33.467Z,16.60
2022-10-20T12:30:33.478Z,16.90
2022-10-20T12:31:33.551Z,17.00
2022-10-20T12:32:33.593Z,20.20
2022-10-20T12:33:33.427Z,16.20
2022-10-20T12:34:33.425Z,14.80
2022-10-20T12:35:33.454Z,15.30
2022-10-20T12:36:33.404Z,22.70
2022-10-20T12:37:33.511Z,16.50
2022-10-20T12:38:33.427Z,23.60
2022-10-20T12:39:33.422Z,14.70
2022-10-20T12:40:33.402Z,13.60
2022-10-20T12:41:33.400Z,14.40
2022-10-20T12:42:33.389Z,13.60
2022-10-20T12:43:33.335Z,13.20
2022-10-20T12:44:33.324Z,16.20
2022-10-20T12:45:33.319Z,14.60
2022-10-20T12:46:33.983Z,15.30
2022-10-20T12:47:33.435Z,15.50
2022-10-20T12:48:33.335Z,11.60
2022-10-20T12:49:33.368Z,14.60
2022-10-20T12:50:33.276Z,15.50
2022-10-20T12:51:33.293Z,17.70
2022-10-20T12:52:33.248Z,14.50
2022-10-20T12:53:33.229Z,14.60
2022-10-20T12:54:33.274Z,15.30
2022-10-20T12:55:35.046Z,15.10
2022-10-20T12:56:33.213Z,13.50
2022-10-20T12:57:33.181Z,14.20
2022-10-20T12:58:33.188Z,16.80